Time;durP1;ratioP1;P1;durP2;ratioP2;P2;SDS_P1;SDS_P2;PMS_P1;PMS_P2;Temp;Humidity;BMP_temperature;BMP_pressure;BME280_temperature;BME280_humidity;BME280_pressure;Samples;Min_cycle;Max_cycle;Signal;HPM_P1;HPM_P2
2023/05/31 00:02:50;;;;;;;;;;;20.40;59.80;;;;;;6267359;28;20323;-70
2023/05/31 00:05:51;;;;;;;;;;;20.40;59.90;;;;;;6266926;28;19971;-70
2023/05/31 00:08:51;;;;;;;;;;;20.40;59.80;;;;;;6272472;28;19913;-70
2023/05/31 00:11:52;;;;;;;;;;;20.40;59.80;;;;;;6271576;28;20321;-70
2023/05/31 00:14:52;;;;;;;;;;;20.40;59.80;;;;;;6272069;28;19920;-70
2023/05/31 00:17:53;;;;;;;;;;;20.40;59.80;;;;;;6272014;28;19912;-70
2023/05/31 00:20:53;;;;;;;;;;;20.40;59.80;;;;;;6271781;28;20011;-70
2023/05/31 00:23:54;;;;;;;;;;;20.40;59.80;;;;;;6271913;28;19913;-70
2023/05/31 00:26:54;;;;;;;;;;;20.40;59.80;;;;;;6271782;28;20020;-71
2023/05/31 00:29:55;;;;;;;;;;;20.40;59.80;;;;;;6271450;28;19912;-70
2023/05/31 00:32:55;;;;;;;;;;;20.40;59.80;;;;;;6253596;28;19909;-70
2023/05/31 00:35:56;;;;;;;;;;;20.40;59.80;;;;;;6271381;28;20198;-70
2023/05/31 00:38:56;;;;;;;;;;;20.40;59.80;;;;;;6271439;28;20273;-71
2023/05/31 00:41:57;;;;;;;;;;;20.40;59.80;;;;;;6271050;28;20058;-70
2023/05/31 00:44:57;;;;;;;;;;;20.40;59.80;;;;;;6270989;28;19917;-70
2023/05/31 00:47:58;;;;;;;;;;;20.40;59.80;;;;;;6271610;28;19912;-70
2023/05/31 00:50:59;;;;;;;;;;;20.40;59.80;;;;;;6270850;28;19951;-70
2023/05/31 00:54:00;;;;;;;;;;;20.40;59.80;;;;;;6270483;28;19921;-70
2023/05/31 00:57:01;;;;;;;;;;;20.40;59.80;;;;;;6271103;28;20236;-70
2023/05/31 01:00:03;;;;;;;;;;;20.40;59.80;;;;;;6270746;28;19966;-70
2023/05/31 01:03:04;;;;;;;;;;;20.40;59.80;;;;;;6270680;28;19909;-70
2023/05/31 01:06:05;;;;;;;;;;;20.40;59.90;;;;;;6270207;28;19924;-70
2023/05/31 01:09:06;;;;;;;;;;;20.40;59.80;;;;;;6271356;28;19913;-70
2023/05/31 01:12:25;;;;;;;;;;;20.40;59.90;;;;;;6270432;28;19909;-70
2023/05/31 01:15:27;;;;;;;;;;;20.40;59.90;;;;;;6270466;28;19913;-70
2023/05/31 01:18:32;;;;;;;;;;;20.40;59.90;;;;;;6269377;28;19962;-70
2023/05/31 01:21:43;;;;;;;;;;;20.40;60.20;;;;;;6270961;28;19952;-70
2023/05/31 01:24:47;;;;;;;;;;;20.40;59.90;;;;;;6269378;28;20283;-70
2023/05/31 01:27:48;;;;;;;;;;;20.40;59.80;;;;;;6270144;28;19919;-71
2023/05/31 01:30:49;;;;;;;;;;;20.40;59.80;;;;;;6270390;28;19908;-70
2023/05/31 01:33:50;;;;;;;;;;;20.40;59.80;;;;;;6269856;28;19912;-70
2023/05/31 01:36:50;;;;;;;;;;;20.40;59.90;;;;;;6270221;28;20449;-70
2023/05/31 01:39:52;;;;;;;;;;;20.40;59.80;;;;;;6270271;28;20287;-70
2023/05/31 01:42:53;;;;;;;;;;;20.40;59.90;;;;;;6245542;28;20379;-70
2023/05/31 01:45:54;;;;;;;;;;;20.40;59.90;;;;;;6252750;28;19989;-70
2023/05/31 01:48:55;;;;;;;;;;;20.40;59.90;;;;;;6269879;28;19915;-70
2023/05/31 01:51:56;;;;;;;;;;;20.40;59.80;;;;;;6269578;28;20371;-70
2023/05/31 01:54:57;;;;;;;;;;;20.40;59.80;;;;;;6269727;28;19928;-70
2023/05/31 01:57:58;;;;;;;;;;;20.40;59.90;;;;;;6270050;28;19908;-70
2023/05/31 02:00:59;;;;;;;;;;;20.40;59.80;;;;;;6266247;28;19915;-70
2023/05/31 02:04:00;;;;;;;;;;;20.40;59.80;;;;;;6268954;28;19909;-70
2023/05/31 02:07:00;;;;;;;;;;;20.40;59.80;;;;;;6268935;28;20359;-70
2023/05/31 02:10:02;;;;;;;;;;;20.40;59.90;;;;;;6269403;28;19916;-70
2023/05/31 02:13:02;;;;;;;;;;;20.40;59.80;;;;;;6269287;28;19909;-70
2023/05/31 02:16:03;;;;;;;;;;;20.40;59.90;;;;;;6269120;28;19915;-70
2023/05/31 02:19:04;;;;;;;;;;;20.40;59.80;;;;;;6268980;28;20383;-70
2023/05/31 02:22:04;;;;;;;;;;;20.40;59.80;;;;;;6269066;28;20405;-70
2023/05/31 02:25:05;;;;;;;;;;;20.40;59.80;;;;;;6269046;28;19921;-70
2023/05/31 02:28:05;;;;;;;;;;;20.40;59.80;;;;;;6268931;28;19971;-70
2023/05/31 02:31:06;;;;;;;;;;;20.40;59.90;;;;;;6268818;28;19909;-70
2023/05/31 02:34:06;;;;;;;;;;;20.40;59.80;;;;;;6268797;28;19967;-70
2023/05/31 02:37:07;;;;;;;;;;;20.40;59.80;;;;;;6268588;28;19913;-70
2023/05/31 02:40:08;;;;;;;;;;;20.40;59.80;;;;;;6268685;28;19917;-71
2023/05/31 02:43:08;;;;;;;;;;;20.40;59.90;;;;;;6268319;28;20300;-70
2023/05/31 02:46:09;;;;;;;;;;;20.40;59.90;;;;;;6268469;28;19920;-70
2023/05/31 02:49:09;;;;;;;;;;;20.40;59.90;;;;;;6268500;28;19913;-70
2023/05/31 02:52:10;;;;;;;;;;;20.40;59.80;;;;;;6268020;28;19963;-70
2023/05/31 02:55:11;;;;;;;;;;;20.40;59.80;;;;;;6268348;28;19971;-70
2023/05/31 02:58:11;;;;;;;;;;;20.40;59.80;;;;;;6267995;28;20035;-70
2023/05/31 03:01:13;;;;;;;;;;;20.40;59.90;;;;;;6268140;28;19913;-70
2023/05/31 03:04:14;;;;;;;;;;;20.40;59.90;;;;;;6268434;28;19924;-70
2023/05/31 03:07:14;;;;;;;;;;;20.40;59.90;;;;;;6267775;28;20320;-70
2023/05/31 03:10:15;;;;;;;;;;;20.40;59.90;;;;;;6268568;28;19952;-70
2023/05/31 03:13:15;;;;;;;;;;;20.40;59.90;;;;;;6267205;28;20410;-70
2023/05/31 03:16:16;;;;;;;;;;;20.40;59.80;;;;;;6268021;28;20239;-70
2023/05/31 03:19:17;;;;;;;;;;;20.40;59.80;;;;;;6267553;28;19919;-70
2023/05/31 03:22:17;;;;;;;;;;;20.40;59.90;;;;;;6268373;28;19912;-70
2023/05/31 03:25:18;;;;;;;;;;;20.40;59.90;;;;;;6267685;28;19916;-70
2023/05/31 03:28:18;;;;;;;;;;;20.40;59.90;;;;;;6267931;28;19909;-70
2023/05/31 03:31:19;;;;;;;;;;;20.40;59.90;;;;;;6267842;28;20360;-70
2023/05/31 03:34:21;;;;;;;;;;;20.40;59.90;;;;;;6267026;28;19965;-70
2023/05/31 03:37:21;;;;;;;;;;;20.40;59.90;;;;;;6267581;28;20320;-70
2023/05/31 03:40:22;;;;;;;;;;;20.40;59.80;;;;;;6267896;28;19920;-70
2023/05/31 03:43:22;;;;;;;;;;;20.40;59.80;;;;;;6271410;28;19956;-71
2023/05/31 03:46:24;;;;;;;;;;;20.40;59.80;;;;;;6272492;28;19921;-70
2023/05/31 03:49:24;;;;;;;;;;;20.40;59.80;;;;;;6272417;28;20284;-70
2023/05/31 03:52:25;;;;;;;;;;;20.40;59.80;;;;;;6272436;28;19920;-70
2023/05/31 03:55:25;;;;;;;;;;;20.40;59.80;;;;;;6272320;28;19947;-70
2023/05/31 03:58:26;;;;;;;;;;;20.40;59.90;;;;;;6272578;28;19909;-70
2023/05/31 04:01:26;;;;;;;;;;;20.40;59.80;;;;;;6272273;28;20379;-70
2023/05/31 04:04:27;;;;;;;;;;;20.40;60.60;;;;;;6272471;28;19919;-70
2023/05/31 04:07:27;;;;;;;;;;;20.40;59.80;;;;;;6271824;28;19971;-70
2023/05/31 04:10:28;;;;;;;;;;;20.40;59.90;;;;;;6272215;28;19916;-70
2023/05/31 04:13:28;;;;;;;;;;;20.40;59.80;;;;;;6271780;28;20356;-70
2023/05/31 04:16:29;;;;;;;;;;;20.40;59.80;;;;;;6272153;28;19909;-70
2023/05/31 04:19:30;;;;;;;;;;;20.40;59.80;;;;;;6271802;28;20321;-71
2023/05/31 04:22:30;;;;;;;;;;;20.40;59.80;;;;;;6271690;28;19909;-70
2023/05/31 04:25:31;;;;;;;;;;;20.40;59.80;;;;;;6271070;28;19917;-70
2023/05/31 04:28:32;;;;;;;;;;;20.40;59.80;;;;;;6271868;28;19958;-70
2023/05/31 04:31:36;;;;;;;;;;;20.40;59.80;;;;;;6271968;28;19974;-70
2023/05/31 04:34:36;;;;;;;;;;;20.40;59.80;;;;;;6271479;28;19913;-70
2023/05/31 04:37:37;;;;;;;;;;;20.40;59.80;;;;;;6271370;28;20333;-70
2023/05/31 04:40:38;;;;;;;;;;;20.40;59.80;;;;;;6271828;28;19915;-71
2023/05/31 04:43:39;;;;;;;;;;;20.40;59.80;;;;;;6271308;28;19954;-70
2023/05/31 04:46:42;;;;;;;;;;;20.40;59.80;;;;;;6271027;28;19929;-70
2023/05/31 04:49:43;;;;;;;;;;;20.40;59.80;;;;;;6271545;28;19999;-70
2023/05/31 04:52:44;;;;;;;;;;;20.40;59.80;;;;;;6270543;28;19964;-71
2023/05/31 04:55:44;;;;;;;;;;;20.40;59.80;;;;;;6270283;28;19913;-70
2023/05/31 04:58:46;;;;;;;;;;;20.40;59.80;;;;;;6271501;28;19917;-70
2023/05/31 05:01:47;;;;;;;;;;;20.50;59.90;;;;;;6270111;28;20306;-71
2023/05/31 05:04:48;;;;;;;;;;;20.40;59.80;;;;;;6270169;28;19920;-70
2023/05/31 05:07:49;;;;;;;;;;;20.40;59.80;;;;;;6271037;28;19909;-70
2023/05/31 05:10:49;;;;;;;;;;;20.40;59.80;;;;;;6270961;28;19913;-70
2023/05/31 05:13:50;;;;;;;;;;;20.40;59.80;;;;;;6265045;28;20299;-70
2023/05/31 05:16:50;;;;;;;;;;;20.40;59.80;;;;;;6264813;28;19974;-70
2023/05/31 05:19:51;;;;;;;;;;;20.40;59.80;;;;;;6267747;28;20346;-70
2023/05/31 05:22:51;;;;;;;;;;;20.40;59.70;;;;;;6269693;28;19913;-71
2023/05/31 05:25:52;;;;;;;;;;;20.40;59.40;;;;;;6269548;28;19917;-70
2023/05/31 05:28:52;;;;;;;;;;;20.40;57.10;;;;;;6270013;28;20363;-70
2023/05/31 05:31:53;;;;;;;;;;;20.40;59.10;;;;;;6269652;28;19913;-70
2023/05/31 05:34:54;;;;;;;;;;;20.40;58.30;;;;;;6268084;28;19913;-70
2023/05/31 05:37:55;;;;;;;;;;;20.40;57.00;;;;;;6265023;28;19916;-70
2023/05/31 05:40:55;;;;;;;;;;;20.40;56.80;;;;;;6268471;28;19932;-70
2023/05/31 05:43:56;;;;;;;;;;;20.40;58.00;;;;;;6269165;28;20012;-70
2023/05/31 05:46:57;;;;;;;;;;;20.40;58.50;;;;;;6268803;28;19947;-70
2023/05/31 05:49:58;;;;;;;;;;;20.40;58.70;;;;;;6269506;28;19908;-70
2023/05/31 05:52:58;;;;;;;;;;;20.40;58.70;;;;;;6267928;28;20391;-70
2023/05/31 05:55:59;;;;;;;;;;;20.40;58.90;;;;;;6268427;28;19919;-70
2023/05/31 05:58:59;;;;;;;;;;;20.40;59.00;;;;;;6283065;28;19955;-70
2023/05/31 06:02:00;;;;;;;;;;;20.40;59.00;;;;;;6261692;28;19913;-71
2023/05/31 06:05:01;;;;;;;;;;;20.40;59.10;;;;;;6260685;28;20311;-70
2023/05/31 06:08:02;;;;;;;;;;;20.40;59.10;;;;;;6270272;28;20004;-70
2023/05/31 06:11:03;;;;;;;;;;;20.40;59.00;;;;;;6269719;28;19920;-70
2023/05/31 06:14:03;;;;;;;;;;;20.40;59.10;;;;;;6270659;28;20394;-70
2023/05/31 06:17:04;;;;;;;;;;;20.40;59.10;;;;;;6269880;28;19912;-70
2023/05/31 06:20:09;;;;;;;;;;;20.40;59.20;;;;;;6269774;28;20354;-70
2023/05/31 06:23:10;;;;;;;;;;;20.40;59.10;;;;;;6269810;28;19913;-70
2023/05/31 06:26:11;;;;;;;;;;;20.40;59.20;;;;;;6269611;28;19946;-70
2023/05/31 06:29:11;;;;;;;;;;;20.50;59.20;;;;;;6269467;28;20063;-70
2023/05/31 06:32:12;;;;;;;;;;;20.40;59.20;;;;;;6269992;28;19913;-70
2023/05/31 06:35:12;;;;;;;;;;;20.40;59.20;;;;;;6270000;28;20379;-70
2023/05/31 06:38:16;;;;;;;;;;;20.40;59.30;;;;;;6269422;28;19913;-70
2023/05/31 06:41:16;;;;;;;;;;;20.40;59.30;;;;;;6269572;28;19916;-70
2023/05/31 06:44:17;;;;;;;;;;;20.40;59.30;;;;;;6269371;28;19908;-70
2023/05/31 06:47:18;;;;;;;;;;;20.40;59.40;;;;;;6269398;28;20012;-70
2023/05/31 06:50:18;;;;;;;;;;;20.50;59.40;;;;;;6269562;28;19917;-70
2023/05/31 06:53:19;;;;;;;;;;;20.40;59.40;;;;;;6268984;28;19944;-70
2023/05/31 06:56:19;;;;;;;;;;;20.40;59.40;;;;;;6269316;28;19920;-70
2023/05/31 06:59:20;;;;;;;;;;;20.50;59.50;;;;;;6268961;28;19912;-70
2023/05/31 07:02:20;;;;;;;;;;;20.40;59.40;;;;;;6269351;28;19966;-70
2023/05/31 07:05:21;;;;;;;;;;;20.50;59.50;;;;;;6269355;28;20019;-70
2023/05/31 07:08:21;;;;;;;;;;;20.40;59.50;;;;;;6269300;28;19952;-70
2023/05/31 07:11:22;;;;;;;;;;;20.40;59.40;;;;;;6269231;28;19939;-70
2023/05/31 07:14:23;;;;;;;;;;;20.50;59.50;;;;;;6269254;28;19920;-70
2023/05/31 07:17:24;;;;;;;;;;;20.40;59.50;;;;;;6269186;28;19909;-70
2023/05/31 07:20:24;;;;;;;;;;;20.40;59.50;;;;;;6268703;28;20304;-70
2023/05/31 07:23:25;;;;;;;;;;;20.40;59.50;;;;;;6268729;28;20010;-70
2023/05/31 07:26:26;;;;;;;;;;;20.40;59.50;;;;;;6269044;28;19924;-70
2023/05/31 07:29:26;;;;;;;;;;;20.40;59.50;;;;;;6257361;28;19909;-71
2023/05/31 07:32:27;;;;;;;;;;;20.40;59.50;;;;;;6269322;28;20001;-70
2023/05/31 07:35:27;;;;;;;;;;;20.50;59.60;;;;;;6263405;28;19909;-70
2023/05/31 07:38:28;;;;;;;;;;;20.50;59.60;;;;;;6255859;28;19908;-70
2023/05/31 07:41:29;;;;;;;;;;;20.50;59.60;;;;;;6268880;28;19917;-70
2023/05/31 07:44:30;;;;;;;;;;;20.50;59.50;;;;;;6268877;28;20047;-70
2023/05/31 07:47:31;;;;;;;;;;;20.50;59.40;;;;;;6258746;28;20329;-70
2023/05/31 07:50:32;;;;;;;;;;;20.50;59.30;;;;;;6268616;28;19955;-70
2023/05/31 07:53:32;;;;;;;;;;;20.60;59.30;;;;;;6268986;28;19924;-70
2023/05/31 07:56:33;;;;;;;;;;;20.60;59.30;;;;;;6268442;28;19931;-70
2023/05/31 07:59:33;;;;;;;;;;;20.60;59.20;;;;;;6268973;28;19919;-70
2023/05/31 08:02:34;;;;;;;;;;;20.60;59.10;;;;;;6268484;28;20011;-71
2023/05/31 08:05:35;;;;;;;;;;;20.70;59.40;;;;;;6268919;28;19920;-72
2023/05/31 08:08:35;;;;;;;;;;;20.80;59.40;;;;;;6268009;28;19940;-74
2023/05/31 08:11:36;;;;;;;;;;;20.90;59.30;;;;;;6268982;28;20335;-71
2023/05/31 08:14:37;;;;;;;;;;;20.90;59.00;;;;;;6268369;28;19940;-71
2023/05/31 08:17:37;;;;;;;;;;;20.90;59.00;;;;;;6268441;28;19909;-71
2023/05/31 08:20:38;;;;;;;;;;;20.80;58.90;;;;;;6267811;28;19942;-71
2023/05/31 08:23:39;;;;;;;;;;;20.80;59.00;;;;;;6268462;28;19909;-70
2023/05/31 08:26:39;;;;;;;;;;;20.80;59.10;;;;;;6268191;28;19917;-71
2023/05/31 08:29:40;;;;;;;;;;;20.80;59.00;;;;;;6271636;28;19908;-71
2023/05/31 08:32:40;;;;;;;;;;;20.80;59.00;;;;;;6272587;28;19909;-71
2023/05/31 08:35:41;;;;;;;;;;;20.80;58.90;;;;;;6272706;28;19913;-71
2023/05/31 08:38:42;;;;;;;;;;;20.80;58.80;;;;;;6262660;28;19952;-70
2023/05/31 08:41:48;;;;;;;;;;;20.80;58.90;;;;;;6265813;28;19920;-70
2023/05/31 08:44:49;;;;;;;;;;;20.80;58.90;;;;;;6272199;28;20004;-70
2023/05/31 08:48:13;;;;;;;;;;;20.80;58.80;;;;;;6273154;28;19967;-71
2023/05/31 08:51:15;;;;;;;;;;;20.80;58.90;;;;;;6263889;28;19908;-70
2023/05/31 08:54:16;;;;;;;;;;;20.80;58.90;;;;;;6254146;28;19925;-70
2023/05/31 08:57:17;;;;;;;;;;;20.80;58.80;;;;;;6259587;28;19920;-70
2023/05/31 09:00:19;;;;;;;;;;;20.80;58.90;;;;;;6272000;28;20314;-70
2023/05/31 09:03:21;;;;;;;;;;;20.80;58.90;;;;;;6273085;28;19955;-70
2023/05/31 09:06:22;;;;;;;;;;;20.80;59.00;;;;;;6271334;28;19927;-70
2023/05/31 09:09:23;;;;;;;;;;;20.80;59.10;;;;;;6261776;28;19917;-70
2023/05/31 09:12:23;;;;;;;;;;;20.80;59.10;;;;;;6271570;28;20351;-70
2023/05/31 09:15:24;;;;;;;;;;;20.80;59.00;;;;;;6272163;28;19909;-70
2023/05/31 09:18:29;;;;;;;;;;;20.80;58.80;;;;;;6272093;28;19920;-70
2023/05/31 09:21:37;;;;;;;;;;;20.80;58.70;;;;;;6271418;28;19913;-70
2023/05/31 09:24:38;;;;;;;;;;;20.80;58.90;;;;;;6247615;28;19928;-70
2023/05/31 09:27:39;;;;;;;;;;;20.80;58.90;;;;;;6271725;28;19917;-70
2023/05/31 09:30:40;;;;;;;;;;;20.80;59.20;;;;;;6271361;28;20256;-70
2023/05/31 09:33:42;;;;;;;;;;;20.80;59.00;;;;;;6271850;28;19909;-70
2023/05/31 09:36:42;;;;;;;;;;;20.90;59.00;;;;;;6271439;28;19909;-70
2023/05/31 09:39:53;;;;;;;;;;;20.90;58.60;;;;;;6248518;28;20026;-70
2023/05/31 09:42:54;;;;;;;;;;;20.90;58.30;;;;;;6271289;28;19944;-71
2023/05/31 09:45:54;;;;;;;;;;;20.90;58.30;;;;;;6270721;28;20386;-70
2023/05/31 09:48:58;;;;;;;;;;;21.00;58.30;;;;;;6274144;28;19913;-70
2023/05/31 09:51:58;;;;;;;;;;;21.00;58.50;;;;;;6270713;28;19959;-70
2023/05/31 09:55:04;;;;;;;;;;;21.00;58.60;;;;;;6271026;28;20452;-70
2023/05/31 09:58:04;;;;;;;;;;;21.00;58.70;;;;;;6270135;28;19909;-70
2023/05/31 10:01:05;;;;;;;;;;;21.00;58.80;;;;;;6271544;28;19986;-71
2023/05/31 10:04:06;;;;;;;;;;;21.00;58.90;;;;;;6270709;28;20307;-71
2023/05/31 10:07:07;;;;;;;;;;;20.90;58.80;;;;;;6270367;28;19917;-71
2023/05/31 10:10:08;;;;;;;;;;;20.90;58.70;;;;;;6270094;28;19920;-71
2023/05/31 10:13:11;;;;;;;;;;;20.90;58.80;;;;;;6269746;28;19952;-71
2023/05/31 10:16:14;;;;;;;;;;;20.90;58.90;;;;;;6269359;28;20029;-71
2023/05/31 10:19:17;;;;;;;;;;;20.90;58.90;;;;;;6270478;28;20388;-70
2023/05/31 10:22:18;;;;;;;;;;;20.90;58.90;;;;;;6269225;28;20374;-71
2023/05/31 10:25:26;;;;;;;;;;;20.90;58.80;;;;;;6261715;28;20318;-70
2023/05/31 10:28:28;;;;;;;;;;;20.90;59.00;;;;;;6270161;28;19920;-71
2023/05/31 10:31:33;;;;;;;;;;;20.90;59.10;;;;;;6256623;28;19920;-71
2023/05/31 10:34:34;;;;;;;;;;;20.90;59.10;;;;;;6270111;28;19913;-70
2023/05/31 10:37:34;;;;;;;;;;;20.90;59.10;;;;;;6243983;28;21610;-70
2023/05/31 10:40:49;;;;;;;;;;;20.90;59.00;;;;;;6269686;28;19924;-71
2023/05/31 10:43:58;;;;;;;;;;;21.00;59.10;;;;;;6259731;28;19982;-70
2023/05/31 10:47:01;;;;;;;;;;;21.00;59.10;;;;;;6258114;28;20263;-70
2023/05/31 10:50:03;;;;;;;;;;;20.90;58.80;;;;;;6267191;28;19944;-70
2023/05/31 10:53:10;;;;;;;;;;;20.90;58.80;;;;;;6268606;28;20196;-70
2023/05/31 10:56:13;;;;;;;;;;;20.90;58.90;;;;;;6251901;28;20359;-70
2023/05/31 10:59:16;;;;;;;;;;;20.90;58.80;;;;;;6269093;28;19999;-70
2023/05/31 11:02:17;;;;;;;;;;;20.90;58.80;;;;;;6269329;28;19977;-71
2023/05/31 11:05:19;;;;;;;;;;;20.90;58.80;;;;;;6269428;28;20329;-70
2023/05/31 11:08:19;;;;;;;;;;;20.90;58.70;;;;;;6264506;28;19917;-70
2023/05/31 11:11:32;;;;;;;;;;;20.80;58.90;;;;;;6273078;28;19967;-70
2023/05/31 11:14:33;;;;;;;;;;;20.80;58.80;;;;;;6268249;28;20352;-70
2023/05/31 11:17:49;;;;;;;;;;;20.80;58.90;;;;;;6269165;28;19916;-70
2023/05/31 11:20:50;;;;;;;;;;;20.80;58.90;;;;;;6268863;28;19913;-70
2023/05/31 11:23:54;;;;;;;;;;;20.80;58.60;;;;;;6267753;28;19913;-70
2023/05/31 11:26:56;;;;;;;;;;;20.80;58.80;;;;;;6265519;28;19924;-70
2023/05/31 11:29:57;;;;;;;;;;;20.80;59.10;;;;;;6268869;28;19908;-71
2023/05/31 11:32:58;;;;;;;;;;;20.80;59.00;;;;;;6268495;28;19920;-71
2023/05/31 11:36:01;;;;;;;;;;;20.90;58.70;;;;;;6269057;28;20371;-70
2023/05/31 11:39:02;;;;;;;;;;;20.90;58.90;;;;;;6268740;28;19941;-70
2023/05/31 11:42:04;;;;;;;;;;;20.80;58.80;;;;;;6268890;28;19951;-70
2023/05/31 11:45:11;;;;;;;;;;;20.80;58.60;;;;;;6268533;28;19909;-70
2023/05/31 11:48:20;;;;;;;;;;;20.80;58.70;;;;;;6269080;28;19909;-70
2023/05/31 11:51:20;;;;;;;;;;;20.90;59.30;;;;;;6270437;28;19913;-70
2023/05/31 11:54:29;;;;;;;;;;;20.80;59.10;;;;;;6269808;28;19985;-70
2023/05/31 11:57:30;;;;;;;;;;;20.80;59.00;;;;;;6270078;28;20363;-70
2023/05/31 12:00:31;;;;;;;;;;;20.90;59.20;;;;;;6269854;28;19909;-69
2023/05/31 12:03:32;;;;;;;;;;;20.90;58.80;;;;;;6272200;28;19956;-71
2023/05/31 12:06:33;;;;;;;;;;;20.90;58.70;;;;;;6274938;28;19917;-70
2023/05/31 12:09:34;;;;;;;;;;;20.80;58.70;;;;;;6274327;28;19913;-70
2023/05/31 12:12:35;;;;;;;;;;;20.80;58.70;;;;;;6274703;28;19909;-69
2023/05/31 12:15:35;;;;;;;;;;;20.80;58.80;;;;;;6274746;28;19920;-70
2023/05/31 12:18:36;;;;;;;;;;;20.80;58.90;;;;;;6274282;28;20016;-70
2023/05/31 12:21:37;;;;;;;;;;;20.80;58.50;;;;;;6274881;28;19909;-70
2023/05/31 12:24:47;;;;;;;;;;;20.80;58.70;;;;;;6274243;28;20011;-70
2023/05/31 12:27:47;;;;;;;;;;;20.80;58.80;;;;;;6274681;28;19920;-70
2023/05/31 12:30:49;;;;;;;;;;;20.80;59.00;;;;;;6274223;28;19909;-70
2023/05/31 12:33:58;;;;;;;;;;;20.80;58.70;;;;;;6274315;28;20004;-70
2023/05/31 12:37:03;;;;;;;;;;;20.80;58.90;;;;;;6274844;28;19959;-70
2023/05/31 12:40:10;;;;;;;;;;;20.80;59.00;;;;;;6273931;28;19936;-70
2023/05/31 12:43:12;;;;;;;;;;;20.80;58.70;;;;;;6274954;28;19976;-70
2023/05/31 12:46:18;;;;;;;;;;;20.80;58.70;;;;;;6273836;28;20031;-69
2023/05/31 12:49:20;;;;;;;;;;;20.80;58.80;;;;;;6274243;28;19959;-70
2023/05/31 12:52:20;;;;;;;;;;;20.80;58.70;;;;;;6274332;28;19913;-71
2023/05/31 12:55:21;;;;;;;;;;;20.80;58.80;;;;;;6273825;28;19931;-70
2023/05/31 12:58:21;;;;;;;;;;;20.80;58.70;;;;;;6274330;28;19915;-70
2023/05/31 13:01:22;;;;;;;;;;;20.80;58.80;;;;;;6273840;28;19978;-69
2023/05/31 13:04:23;;;;;;;;;;;20.80;58.80;;;;;;6273556;28;19916;-70
2023/05/31 13:07:24;;;;;;;;;;;20.80;58.90;;;;;;6273804;28;20308;-70
2023/05/31 13:10:24;;;;;;;;;;;20.80;59.00;;;;;;6272937;28;19923;-70
2023/05/31 13:13:25;;;;;;;;;;;20.80;58.90;;;;;;6269733;28;20355;-70
2023/05/31 13:16:25;;;;;;;;;;;20.80;58.90;;;;;;6272648;28;19956;-70
2023/05/31 13:19:26;;;;;;;;;;;20.80;58.90;;;;;;6273590;28;19920;-70
2023/05/31 13:22:26;;;;;;;;;;;20.80;58.60;;;;;;6273057;28;19960;-70
2023/05/31 13:25:27;;;;;;;;;;;20.80;58.90;;;;;;6272309;28;20270;-70
2023/05/31 13:28:27;;;;;;;;;;;20.80;58.90;;;;;;6273158;28;19913;-70
2023/05/31 13:31:28;;;;;;;;;;;20.80;59.00;;;;;;6273078;28;20003;-70
2023/05/31 13:34:28;;;;;;;;;;;20.80;59.00;;;;;;6273188;28;19917;-70
2023/05/31 13:37:29;;;;;;;;;;;20.80;59.00;;;;;;6272793;28;20378;-70
2023/05/31 13:40:29;;;;;;;;;;;20.80;59.00;;;;;;6272788;28;19944;-69
2023/05/31 13:43:30;;;;;;;;;;;20.80;59.10;;;;;;6272147;28;19920;-68
2023/05/31 13:46:30;;;;;;;;;;;20.80;59.20;;;;;;6272465;28;20446;-70
2023/05/31 13:49:31;;;;;;;;;;;20.80;59.20;;;;;;6272815;28;19908;-70
2023/05/31 13:52:32;;;;;;;;;;;20.80;59.40;;;;;;6272096;28;19916;-69
2023/05/31 13:55:32;;;;;;;;;;;20.70;59.30;;;;;;6271936;28;19928;-70
2023/05/31 13:58:33;;;;;;;;;;;20.70;59.40;;;;;;6272080;28;19909;-70
2023/05/31 14:01:33;;;;;;;;;;;20.70;59.60;;;;;;6271783;28;19913;-70
2023/05/31 14:04:34;;;;;;;;;;;20.70;59.70;;;;;;6272361;28;20379;-70
2023/05/31 14:07:35;;;;;;;;;;;20.70;59.70;;;;;;6271699;28;19917;-70
2023/05/31 14:10:36;;;;;;;;;;;20.70;59.70;;;;;;6271994;28;19999;-70
2023/05/31 14:13:36;;;;;;;;;;;20.70;59.70;;;;;;6271799;28;20359;-69
2023/05/31 14:16:37;;;;;;;;;;;20.70;59.80;;;;;;6272277;28;19932;-70
2023/05/31 14:19:37;;;;;;;;;;;20.60;59.60;;;;;;6271900;28;19909;-70
2023/05/31 14:22:38;;;;;;;;;;;20.60;59.70;;;;;;6271929;28;19916;-70
2023/05/31 14:25:39;;;;;;;;;;;20.70;59.80;;;;;;6271261;28;19923;-70
2023/05/31 14:28:39;;;;;;;;;;;20.60;59.70;;;;;;6271573;28;19916;-70
2023/05/31 14:31:40;;;;;;;;;;;20.60;59.80;;;;;;6272024;28;19909;-70
2023/05/31 14:34:41;;;;;;;;;;;20.60;59.80;;;;;;6271757;28;20279;-69
2023/05/31 14:37:41;;;;;;;;;;;20.60;59.80;;;;;;6271408;28;19909;-70
2023/05/31 14:40:42;;;;;;;;;;;20.60;59.80;;;;;;6270785;28;19931;-70
2023/05/31 14:43:42;;;;;;;;;;;20.60;59.80;;;;;;6270578;28;20030;-70
2023/05/31 14:46:43;;;;;;;;;;;20.60;59.80;;;;;;6270412;28;19927;-70
2023/05/31 14:49:43;;;;;;;;;;;20.60;59.80;;;;;;6270567;28;20367;-70
2023/05/31 14:52:44;;;;;;;;;;;20.60;59.80;;;;;;6270189;28;19928;-70
2023/05/31 14:55:44;;;;;;;;;;;20.60;59.90;;;;;;6270243;28;19967;-70
2023/05/31 14:58:45;;;;;;;;;;;20.60;59.80;;;;;;6270782;28;19948;-70
2023/05/31 15:01:48;;;;;;;;;;;20.60;59.90;;;;;;6270220;28;20449;-70
2023/05/31 15:04:48;;;;;;;;;;;20.60;59.90;;;;;;6271521;28;19908;-70
2023/05/31 15:07:49;;;;;;;;;;;20.60;59.80;;;;;;6270832;28;19917;-70
2023/05/31 15:10:51;;;;;;;;;;;20.60;59.90;;;;;;6270902;28;19917;-70
2023/05/31 15:13:51;;;;;;;;;;;20.60;59.90;;;;;;6270628;28;19908;-70
2023/05/31 15:16:52;;;;;;;;;;;20.60;60.00;;;;;;6270921;28;19982;-68
2023/05/31 15:19:52;;;;;;;;;;;20.60;59.80;;;;;;6270686;28;20314;-68
2023/05/31 15:22:53;;;;;;;;;;;20.60;59.90;;;;;;6269695;28;19909;-68
2023/05/31 15:25:53;;;;;;;;;;;20.50;59.80;;;;;;6270222;28;19917;-68
2023/05/31 15:28:54;;;;;;;;;;;20.50;59.80;;;;;;6270050;28;20363;-68
2023/05/31 15:31:57;;;;;;;;;;;20.60;59.90;;;;;;6270711;28;19909;-68
2023/05/31 15:34:58;;;;;;;;;;;20.50;59.80;;;;;;6270043;28;19908;-69
2023/05/31 15:37:58;;;;;;;;;;;20.60;59.90;;;;;;6271736;28;19915;-69
2023/05/31 15:40:59;;;;;;;;;;;20.50;59.80;;;;;;6275028;28;19917;-69
2023/05/31 15:43:59;;;;;;;;;;;20.50;59.80;;;;;;6274803;28;20384;-68
2023/05/31 15:47:00;;;;;;;;;;;20.50;59.80;;;;;;6275095;28;19916;-68
2023/05/31 15:50:01;;;;;;;;;;;20.50;59.80;;;;;;6271276;28;20429;-69
2023/05/31 15:53:01;;;;;;;;;;;20.50;59.80;;;;;;6272147;28;19924;-69
2023/05/31 15:56:02;;;;;;;;;;;20.50;59.80;;;;;;6272617;28;19916;-68
2023/05/31 15:59:03;;;;;;;;;;;20.50;59.80;;;;;;6270261;28;19912;-68
2023/05/31 16:02:03;;;;;;;;;;;20.50;59.90;;;;;;6271604;28;19919;-69
2023/05/31 16:05:07;;;;;;;;;;;20.50;59.80;;;;;;6272338;28;19919;-69
2023/05/31 16:08:07;;;;;;;;;;;20.50;59.80;;;;;;6272362;28;20405;-68
2023/05/31 16:11:08;;;;;;;;;;;20.50;59.80;;;;;;6272505;28;19909;-69
2023/05/31 16:14:11;;;;;;;;;;;20.50;59.80;;;;;;6272666;28;19913;-68
2023/05/31 16:17:12;;;;;;;;;;;20.50;59.80;;;;;;6271222;28;19909;-69
2023/05/31 16:20:13;;;;;;;;;;;20.50;59.80;;;;;;6270114;28;20341;-68
2023/05/31 16:23:14;;;;;;;;;;;20.50;59.80;;;;;;6270463;28;19916;-69
2023/05/31 16:26:14;;;;;;;;;;;20.50;59.80;;;;;;6269948;28;20557;-69
2023/05/31 16:29:15;;;;;;;;;;;20.50;59.90;;;;;;6269749;28;19909;-68
2023/05/31 16:32:15;;;;;;;;;;;20.50;59.90;;;;;;6269920;28;20350;-68
2023/05/31 16:35:16;;;;;;;;;;;20.50;59.80;;;;;;6269695;28;19920;-69
2023/05/31 16:38:16;;;;;;;;;;;20.50;59.90;;;;;;6269577;28;19909;-68
2023/05/31 16:41:17;;;;;;;;;;;20.50;59.90;;;;;;6269149;28;19916;-69
2023/05/31 16:44:17;;;;;;;;;;;20.50;59.90;;;;;;6269777;28;20402;-68
2023/05/31 16:47:18;;;;;;;;;;;20.50;59.90;;;;;;6269580;28;19945;-69
2023/05/31 16:50:18;;;;;;;;;;;20.50;59.90;;;;;;6269585;28;19909;-69
2023/05/31 16:53:20;;;;;;;;;;;20.50;59.90;;;;;;6269812;28;19974;-68
2023/05/31 16:56:21;;;;;;;;;;;20.50;59.80;;;;;;6269004;28;20379;-68
2023/05/31 16:59:21;;;;;;;;;;;20.50;59.90;;;;;;6268823;28;19982;-68
2023/05/31 17:02:22;;;;;;;;;;;20.50;59.90;;;;;;6265967;28;20213;-68
2023/05/31 17:05:22;;;;;;;;;;;20.50;59.80;;;;;;6268976;28;19924;-68
2023/05/31 17:08:23;;;;;;;;;;;20.50;59.80;;;;;;6268918;28;20283;-68
2023/05/31 17:11:26;;;;;;;;;;;20.50;59.80;;;;;;6262621;28;20008;-68
2023/05/31 17:14:26;;;;;;;;;;;20.50;59.90;;;;;;6268869;28;19970;-68
2023/05/31 17:17:27;;;;;;;;;;;20.50;59.80;;;;;;6268848;28;20368;-69
2023/05/31 17:20:27;;;;;;;;;;;20.50;59.80;;;;;;6268191;28;19913;-69
2023/05/31 17:23:28;;;;;;;;;;;20.50;59.80;;;;;;6268990;28;19970;-69
2023/05/31 17:26:28;;;;;;;;;;;20.50;59.90;;;;;;6268231;28;19924;-69
2023/05/31 17:29:29;;;;;;;;;;;20.50;59.90;;;;;;6268374;28;19932;-69
2023/05/31 17:32:29;;;;;;;;;;;20.50;59.80;;;;;;6268558;28;20182;-68
2023/05/31 17:35:30;;;;;;;;;;;20.50;59.90;;;;;;6268281;28;19912;-68